createdAt,value
2023-03-03T00:02:07.698Z,2.90
2023-03-03T00:17:21.815Z,2.70
2023-03-03T00:32:29.983Z,2.20
2023-03-03T00:47:38.220Z,2.70
2023-03-03T01:02:40.581Z,2.80
2023-03-03T01:17:43.234Z,2.30
2023-03-03T01:32:45.545Z,0.30
2023-03-03T01:48:15.814Z,1.20
2023-03-03T02:03:20.569Z,1.30
2023-03-03T02:18:23.108Z,0.90
2023-03-03T02:33:28.205Z,0.80
2023-03-03T02:48:30.802Z,0.90
2023-03-03T03:03:34.693Z,1.30
2023-03-03T03:18:39.766Z,1.10
2023-03-03T03:33:42.547Z,0.90
2023-03-03T03:48:45.754Z,1.20
2023-03-03T04:03:50.965Z,1.20
2023-03-03T04:18:57.436Z,1.40
2023-03-03T04:34:00.232Z,1.00
2023-03-03T04:49:06.123Z,1.30
2023-03-03T05:04:11.177Z,1.20
2023-03-03T05:19:14.498Z,1.30
2023-03-03T05:34:16.791Z,1.00
2023-03-03T05:49:19.732Z,0.90
2023-03-03T06:04:22.104Z,1.30
2023-03-03T06:19:25.194Z,1.00
2023-03-03T06:34:27.627Z,0.90
2023-03-03T06:49:29.925Z,1.00
2023-03-03T07:04:33.794Z,0.60
2023-03-03T07:19:36.540Z,0.60
2023-03-03T07:34:43.868Z,0.50
2023-03-03T07:49:49.047Z,0.50
2023-03-03T08:04:52.533Z,0.90
2023-03-03T08:19:55.899Z,1.00
2023-03-03T08:34:58.157Z,1.10
2023-03-03T08:50:02.056Z,0.90
2023-03-03T09:05:05.295Z,0.90
2023-03-03T09:20:33.720Z,1.20
2023-03-03T09:35:39.032Z,1.30
2023-03-03T09:50:48.862Z,1.50
2023-03-03T10:05:56.646Z,1.60
2023-03-03T10:21:34.416Z,1.50
2023-03-03T10:36:36.688Z,1.60
2023-03-03T10:51:47.863Z,1.80
2023-03-03T11:06:58.710Z,2.20
2023-03-03T11:22:10.436Z,2.50
2023-03-03T11:37:28.296Z,2.60
2023-03-03T11:52:49.399Z,2.80
2023-03-03T12:08:23.639Z,3.00
2023-03-03T12:24:05.232Z,3.10
2023-03-03T12:39:35.076Z,3.30
2023-03-03T12:55:14.793Z,3.70
2023-03-03T13:10:45.657Z,3.70
2023-03-03T13:26:02.523Z,3.20
2023-03-03T13:41:38.613Z,3.20
2023-03-03T13:56:44.073Z,3.20
2023-03-03T14:11:48.683Z,3.50
2023-03-03T14:26:57.210Z,3.90
2023-03-03T14:42:00.651Z,3.80
2023-03-03T14:57:17.222Z,3.60
2023-03-03T15:12:36.957Z,3.20
2023-03-03T15:27:48.912Z,4.10
2023-03-03T15:43:05.646Z,4.10
2023-03-03T15:58:29.226Z,4.00
2023-03-03T16:13:59.413Z,4.00
2023-03-03T16:29:13.934Z,5.00
2023-03-03T16:44:25.792Z,4.80
2023-03-03T16:59:39.788Z,6.00
2023-03-03T17:14:42.027Z,5.10
2023-03-03T17:30:02.343Z,4.90
2023-03-03T17:45:10.529Z,4.60
2023-03-03T18:00:37.476Z,4.60
2023-03-03T18:16:11.942Z,4.70
2023-03-03T18:31:27.188Z,4.80
2023-03-03T18:46:29.569Z,4.60
2023-03-03T19:01:31.940Z,4.50
2023-03-03T19:16:37.356Z,4.30
2023-03-03T19:32:13.233Z,4.20
2023-03-03T19:47:31.507Z,4.10
2023-03-03T20:02:42.667Z,4.00
2023-03-03T20:18:09.988Z,4.00
2023-03-03T20:33:44.137Z,3.10
2023-03-03T20:49:07.559Z,4.40
2023-03-03T21:04:26.335Z,4.40
2023-03-03T21:19:34.754Z,4.50
2023-03-03T21:34:41.684Z,4.50
2023-03-03T21:49:46.422Z,4.50
2023-03-03T22:04:51.445Z,4.60
2023-03-03T22:19:55.708Z,4.80
2023-03-03T22:34:58.169Z,4.80
2023-03-03T22:50:00.477Z,4.50
2023-03-03T23:05:08.153Z,4.50
2023-03-03T23:20:13.345Z,4.40
2023-03-03T23:35:15.923Z,4.50
2023-03-03T23:50:18.281Z,4.50
